createdAt,value
2018-03-21T00:01:27.134Z,4.55
2018-03-21T00:03:55.757Z,5.45
2018-03-21T00:06:24.403Z,6.20
2018-03-21T00:08:52.958Z,4.87
2018-03-21T00:11:21.515Z,5.57
2018-03-21T00:13:50.029Z,4.78
2018-03-21T00:16:18.848Z,4.68
2018-03-21T00:18:47.487Z,7.05
2018-03-21T00:21:15.975Z,5.18
2018-03-21T00:23:44.567Z,6.43
2018-03-21T00:26:13.074Z,7.43
2018-03-21T00:28:41.630Z,6.12
2018-03-21T00:31:10.245Z,6.55
2018-03-21T00:33:39.030Z,4.57
2018-03-21T00:36:07.549Z,5.53
2018-03-21T00:38:36.056Z,5.28
2018-03-21T00:41:04.512Z,6.57
2018-03-21T00:43:33.198Z,7.75
2018-03-21T00:46:01.911Z,6.78
2018-03-21T00:48:30.395Z,5.43
2018-03-21T00:50:58.882Z,6.35
2018-03-21T00:53:27.528Z,6.43
2018-03-21T00:55:56.114Z,4.40
2018-03-21T00:58:24.780Z,5.20
2018-03-21T01:00:53.362Z,4.15
2018-03-21T01:03:21.831Z,4.03
2018-03-21T01:05:50.350Z,3.95
2018-03-21T01:08:18.937Z,4.97
2018-03-21T01:10:47.550Z,4.37
2018-03-21T01:13:16.281Z,4.57
2018-03-21T01:15:45.125Z,3.62
2018-03-21T01:18:14.470Z,3.97
2018-03-21T01:20:43.078Z,3.03
2018-03-21T01:23:11.617Z,3.78
2018-03-21T01:25:40.067Z,4.10
2018-03-21T01:28:09.603Z,3.65
2018-03-21T01:30:38.113Z,3.35
2018-03-21T01:33:06.640Z,3.47
2018-03-21T01:35:35.223Z,3.75
2018-03-21T01:38:03.947Z,3.95
2018-03-21T01:40:32.451Z,3.97
2018-03-21T01:43:01.997Z,3.45
2018-03-21T01:45:30.532Z,3.65
2018-03-21T01:47:59.014Z,3.33
2018-03-21T01:50:38.395Z,2.85
2018-03-21T01:53:10.900Z,3.03
2018-03-21T01:55:39.486Z,2.60
2018-03-21T01:58:07.968Z,3.53
2018-03-21T02:00:36.417Z,3.62
2018-03-21T02:03:04.994Z,2.30
2018-03-21T02:05:33.530Z,2.70
2018-03-21T02:08:01.946Z,2.22
2018-03-21T02:10:30.438Z,2.35
2018-03-21T02:12:59.055Z,2.40
2018-03-21T02:15:27.875Z,1.85
2018-03-21T02:17:56.414Z,2.00
2018-03-21T02:20:24.941Z,2.55
2018-03-21T02:22:53.383Z,2.58
2018-03-21T02:25:21.982Z,2.85
2018-03-21T02:27:50.488Z,2.55
2018-03-21T02:30:19.172Z,2.97
2018-03-21T02:32:47.793Z,3.35
2018-03-21T02:35:16.296Z,3.10
2018-03-21T02:37:44.828Z,2.35
2018-03-21T02:40:13.387Z,2.75
2018-03-21T02:42:41.830Z,3.10
2018-03-21T02:45:10.288Z,2.42
2018-03-21T02:47:38.787Z,2.55
2018-03-21T02:50:07.368Z,2.58
2018-03-21T02:52:36.091Z,3.00
2018-03-21T02:55:04.676Z,3.35
2018-03-21T02:57:33.251Z,2.53
2018-03-21T03:00:01.689Z,2.45
2018-03-21T03:02:30.301Z,2.47
2018-03-21T03:04:58.777Z,2.70
2018-03-21T03:07:27.242Z,3.03
2018-03-21T03:09:55.848Z,3.05
2018-03-21T03:12:24.555Z,2.42
2018-03-21T03:14:53.106Z,2.30
2018-03-21T03:17:21.895Z,2.62
2018-03-21T03:19:50.581Z,3.25
2018-03-21T03:22:20.131Z,3.28
2018-03-21T03:24:48.875Z,3.45
2018-03-21T03:27:17.400Z,2.62
2018-03-21T03:29:45.949Z,3.12
2018-03-21T03:32:14.471Z,2.53
2018-03-21T03:34:43.013Z,3.30
2018-03-21T03:37:11.432Z,3.70
2018-03-21T03:39:39.946Z,3.33
2018-03-21T03:42:08.464Z,2.67
2018-03-21T03:44:36.947Z,2.85
2018-03-21T03:47:05.625Z,3.15
2018-03-21T03:49:34.049Z,3.78
2018-03-21T03:52:02.569Z,3.25
2018-03-21T03:54:31.201Z,3.78
2018-03-21T03:56:59.776Z,2.75
2018-03-21T03:59:28.247Z,3.40
2018-03-21T04:01:57.746Z,4.37
2018-03-21T04:04:26.202Z,3.08
2018-03-21T04:06:54.683Z,2.90
2018-03-21T04:09:23.300Z,2.85
2018-03-21T04:11:51.844Z,3.25
2018-03-21T04:14:24.474Z,3.62
2018-03-21T04:16:53.047Z,2.92
2018-03-21T04:19:21.735Z,3.45
2018-03-21T04:21:50.533Z,3.37
2018-03-21T04:24:19.410Z,3.20
2018-03-21T04:26:48.011Z,3.35
2018-03-21T04:29:16.618Z,3.20
2018-03-21T04:31:45.194Z,3.30
2018-03-21T04:34:13.885Z,3.75
2018-03-21T04:36:42.572Z,2.65
2018-03-21T04:39:11.130Z,3.67
2018-03-21T04:41:39.855Z,4.10
2018-03-21T04:44:08.395Z,2.95
2018-03-21T04:46:36.979Z,3.50
2018-03-21T04:49:05.538Z,2.83
2018-03-21T04:51:34.059Z,2.83
2018-03-21T04:54:02.609Z,2.65
2018-03-21T04:56:31.080Z,4.12
2018-03-21T04:58:59.670Z,3.05
2018-03-21T05:01:28.192Z,3.20
2018-03-21T05:03:56.876Z,3.25
2018-03-21T05:06:25.441Z,3.22
2018-03-21T05:08:53.939Z,3.60
2018-03-21T05:11:22.423Z,3.78
2018-03-21T05:13:51.162Z,4.18
2018-03-21T05:16:20.055Z,3.45
2018-03-21T05:18:48.757Z,3.78
2018-03-21T05:21:17.763Z,4.25
2018-03-21T05:23:46.321Z,4.43
2018-03-21T05:26:15.075Z,4.50
2018-03-21T05:28:44.171Z,3.15
2018-03-21T05:31:12.932Z,3.20
2018-03-21T05:33:41.594Z,3.75
2018-03-21T05:36:10.156Z,4.53
2018-03-21T05:38:38.945Z,3.70
2018-03-21T05:41:07.527Z,3.87
2018-03-21T05:43:36.100Z,4.10
2018-03-21T05:46:05.341Z,4.22
2018-03-21T05:48:34.717Z,3.37
2018-03-21T05:51:03.498Z,4.75
2018-03-21T05:53:32.109Z,4.07
2018-03-21T05:56:00.575Z,4.32
2018-03-21T05:58:29.152Z,3.83
2018-03-21T06:00:57.758Z,3.53
2018-03-21T06:03:26.318Z,4.80
2018-03-21T06:05:54.906Z,4.03
2018-03-21T06:08:23.490Z,3.75
2018-03-21T06:10:51.972Z,6.03
2018-03-21T06:13:20.658Z,3.62
2018-03-21T06:15:49.253Z,3.85
2018-03-21T06:18:17.826Z,3.85
2018-03-21T06:20:46.554Z,3.85
2018-03-21T06:23:15.151Z,4.40
2018-03-21T06:25:43.759Z,4.07
2018-03-21T06:28:14.412Z,3.92
2018-03-21T06:30:43.044Z,3.47
2018-03-21T06:33:11.477Z,3.75
2018-03-21T06:35:40.097Z,3.28
2018-03-21T06:38:09.023Z,3.25
2018-03-21T06:40:45.113Z,3.03
2018-03-21T06:43:13.740Z,3.00
2018-03-21T06:45:42.501Z,3.35
2018-03-21T06:48:11.067Z,3.58
2018-03-21T06:50:40.411Z,3.80
2018-03-21T06:53:08.968Z,4.03
2018-03-21T06:55:37.642Z,3.97
2018-03-21T06:58:06.134Z,4.32
2018-03-21T07:00:34.704Z,3.75
2018-03-21T07:03:03.419Z,3.20
2018-03-21T07:05:31.889Z,3.58
2018-03-21T07:08:00.365Z,3.72
2018-03-21T07:10:28.989Z,3.08
2018-03-21T07:12:57.535Z,2.33
2018-03-21T07:15:37.793Z,2.47
2018-03-21T07:18:14.203Z,2.45
2018-03-21T07:20:42.855Z,2.28
2018-03-21T07:23:11.422Z,2.67
2018-03-21T07:25:39.996Z,3.10
2018-03-21T07:28:08.784Z,2.60
2018-03-21T07:30:37.236Z,2.28
2018-03-21T07:33:05.706Z,2.33
2018-03-21T07:35:34.401Z,3.08
2018-03-21T07:38:02.922Z,2.72
2018-03-21T07:40:31.568Z,3.20
2018-03-21T07:43:00.113Z,2.03
2018-03-21T07:45:28.973Z,2.50
2018-03-21T07:47:57.502Z,2.42
2018-03-21T07:50:26.014Z,3.70
2018-03-21T07:52:54.548Z,3.20
2018-03-21T07:55:23.102Z,3.35
2018-03-21T07:57:51.687Z,2.40
2018-03-21T08:00:20.317Z,2.40
2018-03-21T08:02:48.980Z,2.70
2018-03-21T08:05:17.876Z,3.35
2018-03-21T08:07:46.634Z,2.85
2018-03-21T08:10:15.333Z,3.33
2018-03-21T08:12:44.512Z,2.40
2018-03-21T08:15:13.099Z,2.53
2018-03-21T08:17:41.650Z,1.95
2018-03-21T08:20:10.273Z,2.05
2018-03-21T08:22:38.768Z,2.25
2018-03-21T08:25:07.293Z,2.97
2018-03-21T08:27:35.914Z,3.75
2018-03-21T08:30:04.476Z,3.42
2018-03-21T08:32:33.021Z,2.50
2018-03-21T08:35:01.563Z,2.85
2018-03-21T08:37:30.142Z,2.80
2018-03-21T08:39:58.832Z,2.85
2018-03-21T08:42:27.414Z,2.67
2018-03-21T08:44:56.033Z,3.28
2018-03-21T08:47:24.796Z,2.97
2018-03-21T08:49:53.577Z,2.87
2018-03-21T08:52:22.310Z,2.60
2018-03-21T08:54:50.980Z,2.35
2018-03-21T08:57:20.051Z,2.50
2018-03-21T08:59:48.746Z,2.20
2018-03-21T09:02:17.288Z,2.28
2018-03-21T09:04:46.008Z,2.47
2018-03-21T09:07:14.612Z,2.90
2018-03-21T09:09:44.045Z,2.87
2018-03-21T09:12:13.800Z,3.00
2018-03-21T09:14:42.313Z,3.40
2018-03-21T09:17:10.871Z,4.28
2018-03-21T09:19:39.392Z,3.40
2018-03-21T09:22:08.062Z,3.65
2018-03-21T09:24:37.458Z,3.33
2018-03-21T09:27:06.864Z,2.92
2018-03-21T09:29:35.427Z,3.55
2018-03-21T09:32:04.645Z,3.03
2018-03-21T09:34:33.248Z,3.72
2018-03-21T09:37:01.898Z,4.03
2018-03-21T09:39:31.499Z,4.05
2018-03-21T09:42:00.520Z,4.45
2018-03-21T09:44:29.140Z,4.55
2018-03-21T09:46:57.755Z,4.40
2018-03-21T09:49:26.820Z,4.20
2018-03-21T09:51:55.648Z,5.68
2018-03-21T09:54:25.026Z,4.90
2018-03-21T09:56:57.756Z,4.57
2018-03-21T09:59:26.272Z,5.65
2018-03-21T10:01:54.877Z,4.45
2018-03-21T10:04:23.750Z,5.22
2018-03-21T10:06:52.333Z,4.03
2018-03-21T10:09:20.837Z,4.45
2018-03-21T10:11:49.418Z,4.80
2018-03-21T10:14:18.137Z,5.00
2018-03-21T10:16:46.661Z,5.20
2018-03-21T10:19:15.552Z,4.22
2018-03-21T10:21:44.293Z,4.43
2018-03-21T10:24:13.130Z,4.22
2018-03-21T10:26:41.919Z,4.72
2018-03-21T10:29:10.388Z,4.80
2018-03-21T10:31:39.004Z,5.20
2018-03-21T10:34:07.506Z,4.57
2018-03-21T10:36:35.993Z,4.10
2018-03-21T10:39:04.518Z,4.97
2018-03-21T10:41:33.031Z,4.55
2018-03-21T10:44:01.593Z,5.87
2018-03-21T10:46:30.175Z,6.03
2018-03-21T10:48:58.656Z,5.72
2018-03-21T10:51:27.084Z,5.18
2018-03-21T10:53:55.802Z,5.78
2018-03-21T10:56:25.534Z,6.25
2018-03-21T10:58:54.120Z,5.35
2018-03-21T11:01:28.165Z,5.72
2018-03-21T11:03:56.658Z,5.07
2018-03-21T11:06:25.319Z,4.85
2018-03-21T11:08:54.110Z,5.10
2018-03-21T11:11:22.857Z,5.15
2018-03-21T11:13:51.562Z,4.40
2018-03-21T11:16:20.273Z,4.32
2018-03-21T11:18:49.055Z,4.20
2018-03-21T11:21:17.742Z,4.22
2018-03-21T11:23:46.431Z,4.43
2018-03-21T11:26:15.289Z,4.43
2018-03-21T11:28:44.033Z,4.32
2018-03-21T11:31:12.648Z,3.78
2018-03-21T11:33:41.214Z,4.95
2018-03-21T11:36:09.887Z,4.40
2018-03-21T11:38:38.521Z,4.20
2018-03-21T11:41:07.052Z,3.85
2018-03-21T11:43:35.628Z,3.95
2018-03-21T11:46:04.109Z,3.50
2018-03-21T11:48:32.889Z,4.28
2018-03-21T11:51:01.369Z,4.47
2018-03-21T11:53:30.291Z,4.35
2018-03-21T11:55:59.170Z,3.87
2018-03-21T11:58:27.887Z,4.68
2018-03-21T12:00:56.934Z,4.00
2018-03-21T12:03:25.712Z,3.67
2018-03-21T12:05:54.374Z,4.43
2018-03-21T12:08:23.012Z,4.60
2018-03-21T12:10:51.672Z,4.40
2018-03-21T12:13:21.209Z,3.75
2018-03-21T12:15:50.038Z,4.85
2018-03-21T12:18:18.956Z,4.00
2018-03-21T12:20:47.704Z,4.68
2018-03-21T12:23:16.713Z,3.55
2018-03-21T12:25:45.660Z,3.75
2018-03-21T12:28:14.343Z,4.10
2018-03-21T12:30:43.571Z,4.03
2018-03-21T12:33:12.208Z,4.12
2018-03-21T12:35:40.864Z,4.10
2018-03-21T12:38:09.696Z,4.25
2018-03-21T12:40:38.208Z,3.42
2018-03-21T12:43:06.726Z,3.33
2018-03-21T12:45:35.265Z,3.12
2018-03-21T12:48:03.907Z,3.37
2018-03-21T12:50:32.489Z,3.12
2018-03-21T12:53:01.121Z,3.95
2018-03-21T12:55:29.655Z,2.90
2018-03-21T12:57:58.412Z,3.60
2018-03-21T13:00:26.958Z,3.58
2018-03-21T13:02:55.562Z,3.03
2018-03-21T13:05:24.313Z,2.50
2018-03-21T13:07:53.045Z,3.00
2018-03-21T13:10:21.538Z,3.40
2018-03-21T13:12:50.202Z,4.05
2018-03-21T13:15:19.446Z,2.72
2018-03-21T13:17:48.105Z,3.10
2018-03-21T13:20:16.855Z,3.65
2018-03-21T13:22:46.455Z,4.32
2018-03-21T13:25:15.803Z,3.67
2018-03-21T13:27:45.308Z,4.25
2018-03-21T13:30:14.098Z,4.28
2018-03-21T13:32:42.619Z,4.00
2018-03-21T13:35:11.136Z,3.70
2018-03-21T13:37:40.013Z,3.80
2018-03-21T13:40:08.800Z,4.35
2018-03-21T13:42:37.308Z,3.92
2018-03-21T13:45:05.890Z,4.22
2018-03-21T13:47:34.422Z,3.60
2018-03-21T13:50:03.031Z,4.97
2018-03-21T13:52:31.638Z,3.70
2018-03-21T13:55:00.308Z,4.25
2018-03-21T13:57:32.224Z,3.70
2018-03-21T14:00:02.241Z,4.05
2018-03-21T14:02:30.841Z,3.40
2018-03-21T14:04:59.637Z,4.43
2018-03-21T14:07:28.210Z,4.30
2018-03-21T14:09:56.802Z,3.50
2018-03-21T14:12:25.482Z,3.80
2018-03-21T14:14:54.168Z,3.85
2018-03-21T14:17:22.998Z,3.67
2018-03-21T14:19:52.399Z,4.05
2018-03-21T14:22:21.115Z,3.53
2018-03-21T14:24:49.772Z,5.10
2018-03-21T14:27:18.867Z,3.67
2018-03-21T14:29:47.556Z,4.20
2018-03-21T14:32:16.090Z,2.90
2018-03-21T14:34:44.942Z,3.78
2018-03-21T14:37:14.269Z,5.60
2018-03-21T14:39:42.829Z,4.03
2018-03-21T14:42:11.495Z,3.87
2018-03-21T14:44:40.138Z,3.90
2018-03-21T14:47:08.664Z,3.35
2018-03-21T14:49:37.487Z,4.00
2018-03-21T14:52:06.406Z,4.45
2018-03-21T14:54:34.921Z,4.47
2018-03-21T14:57:03.421Z,3.92
2018-03-21T14:59:32.242Z,4.20
2018-03-21T15:02:00.678Z,3.22
2018-03-21T15:04:29.255Z,3.72
2018-03-21T15:06:57.850Z,5.28
2018-03-21T15:09:26.480Z,4.22
2018-03-21T15:11:55.208Z,3.50
2018-03-21T15:14:24.032Z,3.85
2018-03-21T15:16:52.717Z,4.30
2018-03-21T15:19:21.527Z,4.75
2018-03-21T15:21:50.174Z,6.93
2018-03-21T15:24:18.945Z,5.10
2018-03-21T15:26:47.686Z,4.93
2018-03-21T15:29:16.292Z,4.62
2018-03-21T15:31:44.908Z,3.37
2018-03-21T15:34:13.452Z,4.80
2018-03-21T15:36:42.227Z,5.90
2018-03-21T15:39:11.338Z,4.60
2018-03-21T15:41:41.841Z,4.85
2018-03-21T15:44:15.055Z,5.50
2018-03-21T15:49:36.639Z,4.28
2018-03-21T15:52:05.206Z,4.10
2018-03-21T15:54:33.674Z,4.87
2018-03-21T15:57:02.225Z,5.07
2018-03-21T15:59:30.783Z,4.12
2018-03-21T16:01:59.359Z,3.55
2018-03-21T16:04:28.607Z,5.07
2018-03-21T16:06:57.590Z,4.22
2018-03-21T16:09:26.594Z,4.70
2018-03-21T16:11:55.846Z,4.45
2018-03-21T16:14:24.538Z,4.97
2018-03-21T16:16:53.493Z,5.12
2018-03-21T16:19:23.191Z,6.62
2018-03-21T16:21:51.812Z,3.87
2018-03-21T16:24:20.871Z,4.85
2018-03-21T16:26:49.685Z,4.28
2018-03-21T16:29:18.784Z,7.30
2018-03-21T16:31:47.871Z,4.18
2018-03-21T16:34:16.883Z,5.47
2018-03-21T16:36:45.718Z,3.50
2018-03-21T16:39:14.620Z,4.45
2018-03-21T16:41:43.298Z,4.15
2018-03-21T16:44:11.818Z,4.20
2018-03-21T16:46:40.565Z,4.70
2018-03-21T16:49:09.139Z,4.82
2018-03-21T16:51:37.635Z,5.62
2018-03-21T16:54:06.156Z,4.35
2018-03-21T16:56:34.759Z,4.50
2018-03-21T16:59:03.348Z,5.75
2018-03-21T17:01:31.933Z,5.15
2018-03-21T17:04:00.688Z,4.85
2018-03-21T17:06:29.334Z,5.55
2018-03-21T17:08:57.944Z,6.30
2018-03-21T17:11:27.064Z,5.90
2018-03-21T17:13:55.769Z,4.70
2018-03-21T17:16:25.515Z,5.18
2018-03-21T17:18:54.230Z,5.10
2018-03-21T17:21:23.235Z,5.22
2018-03-21T17:23:51.813Z,6.37
2018-03-21T17:26:20.456Z,4.93
2018-03-21T17:28:49.095Z,4.82
2018-03-21T17:31:17.658Z,4.80
2018-03-21T17:33:48.688Z,5.32
2018-03-21T17:36:17.190Z,5.62
2018-03-21T17:38:45.979Z,5.35
2018-03-21T17:41:14.824Z,6.00
2018-03-21T17:43:43.620Z,5.57
2018-03-21T17:46:12.458Z,6.18
2018-03-21T17:48:41.030Z,5.40
2018-03-21T17:51:24.739Z,5.78
2018-03-21T17:54:00.692Z,5.95
2018-03-21T17:56:31.969Z,6.15
2018-03-21T17:59:00.607Z,4.43
2018-03-21T18:01:29.391Z,5.05
2018-03-21T18:03:58.205Z,5.05
2018-03-21T18:06:26.996Z,6.60
2018-03-21T18:08:55.621Z,5.22
2018-03-21T18:11:24.102Z,4.78
2018-03-21T18:13:52.700Z,6.10
2018-03-21T18:16:21.377Z,6.18
2018-03-21T18:18:49.978Z,6.28
2018-03-21T18:21:18.616Z,6.50
2018-03-21T18:23:47.478Z,5.53
2018-03-21T18:26:16.229Z,6.20
2018-03-21T18:28:44.849Z,5.57
2018-03-21T18:31:13.871Z,5.28
2018-03-21T18:33:42.351Z,5.30
2018-03-21T18:36:10.962Z,5.22
2018-03-21T18:38:41.852Z,5.35
2018-03-21T18:41:10.358Z,5.32
2018-03-21T18:43:38.972Z,5.85
2018-03-21T18:46:07.474Z,6.37
2018-03-21T18:48:36.167Z,5.05
2018-03-21T18:51:04.740Z,6.07
2018-03-21T18:53:33.265Z,6.37
2018-03-21T18:56:01.873Z,4.62
2018-03-21T18:58:30.703Z,9.50
2018-03-21T19:00:59.387Z,6.47
2018-03-21T19:03:28.283Z,6.47
2018-03-21T19:05:57.201Z,6.03
2018-03-21T19:08:25.962Z,7.30
2018-03-21T19:10:54.918Z,6.45
2018-03-21T19:13:23.743Z,6.55
2018-03-21T19:15:52.643Z,6.22
2018-03-21T19:18:21.463Z,5.60
2018-03-21T19:20:50.487Z,5.85
2018-03-21T19:23:19.662Z,6.60
2018-03-21T19:25:48.724Z,7.30
2018-03-21T19:28:17.308Z,7.70
2018-03-21T19:30:45.882Z,8.10
2018-03-21T19:33:14.634Z,8.50
2018-03-21T19:35:43.567Z,8.63
2018-03-21T19:38:12.082Z,7.93
2018-03-21T19:40:40.644Z,8.55
2018-03-21T19:43:09.108Z,7.70
2018-03-21T19:45:37.600Z,9.70
2018-03-21T19:48:06.267Z,9.02
2018-03-21T19:50:34.786Z,8.48
2018-03-21T19:53:03.282Z,8.65
2018-03-21T19:55:31.891Z,9.85
2018-03-21T19:58:00.637Z,10.20
2018-03-21T20:00:29.429Z,11.98
2018-03-21T20:02:58.007Z,13.43
2018-03-21T20:05:26.975Z,16.10
2018-03-21T20:07:56.158Z,16.60
2018-03-21T20:10:25.099Z,17.87
2018-03-21T20:12:54.089Z,17.58
2018-03-21T20:15:22.984Z,19.90
2018-03-21T20:17:51.929Z,20.75
2018-03-21T20:20:20.772Z,19.50
2018-03-21T20:22:49.527Z,19.20
2018-03-21T20:25:18.548Z,18.23
2018-03-21T20:27:47.722Z,18.30
2018-03-21T20:30:16.703Z,18.35
2018-03-21T20:32:45.739Z,18.65
2018-03-21T20:35:14.640Z,16.75
2018-03-21T20:37:43.269Z,17.75
2018-03-21T20:40:11.737Z,14.98
2018-03-21T20:42:40.899Z,16.52
2018-03-21T20:45:09.477Z,13.13
2018-03-21T20:47:38.658Z,12.00
2018-03-21T20:50:07.102Z,11.00
2018-03-21T20:52:35.617Z,9.00
2018-03-21T20:55:04.774Z,9.25
2018-03-21T20:57:33.576Z,8.88
2018-03-21T21:00:02.333Z,8.07
2018-03-21T21:02:30.937Z,8.75
2018-03-21T21:05:00.088Z,7.05
2018-03-21T21:07:28.710Z,5.85
2018-03-21T21:09:57.431Z,7.05
2018-03-21T21:12:26.513Z,5.93
2018-03-21T21:14:55.277Z,5.87
2018-03-21T21:17:24.191Z,4.85
2018-03-21T21:19:53.009Z,5.28
2018-03-21T21:22:21.810Z,6.95
2018-03-21T21:24:50.339Z,4.78
2018-03-21T21:27:19.167Z,4.28
2018-03-21T21:29:51.743Z,5.18
2018-03-21T21:32:20.326Z,4.60
2018-03-21T21:34:49.540Z,4.53
2018-03-21T21:37:18.626Z,4.35
2018-03-21T21:39:47.284Z,4.68
2018-03-21T21:42:16.099Z,4.25
2018-03-21T21:44:45.199Z,5.43
2018-03-21T21:47:13.982Z,4.90
2018-03-21T21:49:42.578Z,3.40
2018-03-21T21:52:11.244Z,5.95
2018-03-21T21:54:39.829Z,5.25
2018-03-21T21:57:08.351Z,2.70
2018-03-21T21:59:37.014Z,2.80
2018-03-21T22:02:05.477Z,3.22
2018-03-21T22:04:34.034Z,3.17
2018-03-21T22:07:03.743Z,3.30
2018-03-21T22:09:32.233Z,2.90
2018-03-21T22:12:01.023Z,3.12
2018-03-21T22:14:29.770Z,3.50
2018-03-21T22:16:58.405Z,3.55
2018-03-21T22:19:27.123Z,3.15
2018-03-21T22:21:55.852Z,4.00
2018-03-21T22:24:24.614Z,4.12
2018-03-21T22:26:53.534Z,2.67
2018-03-21T22:29:22.422Z,4.15
2018-03-21T22:31:51.454Z,4.07
2018-03-21T22:34:20.035Z,2.45
2018-03-21T22:36:49.645Z,3.03
2018-03-21T22:39:18.538Z,2.78
2018-03-21T22:41:47.198Z,3.30
2018-03-21T22:44:15.972Z,2.90
2018-03-21T22:46:45.168Z,2.28
2018-03-21T22:49:13.757Z,2.92
2018-03-21T22:51:42.639Z,3.78
2018-03-21T22:54:11.267Z,3.28
2018-03-21T22:56:39.915Z,2.55
2018-03-21T23:01:48.953Z,3.30
2018-03-21T23:04:18.071Z,3.45
2018-03-21T23:06:46.668Z,3.65
2018-03-21T23:09:15.699Z,2.50
2018-03-21T23:11:45.699Z,3.03
2018-03-21T23:14:14.351Z,3.40
2018-03-21T23:16:43.468Z,3.55
2018-03-21T23:19:11.985Z,3.80
2018-03-21T23:21:40.706Z,4.25
2018-03-21T23:24:09.285Z,3.42
2018-03-21T23:26:37.820Z,4.50
2018-03-21T23:29:06.353Z,3.85
2018-03-21T23:31:34.993Z,4.32
2018-03-21T23:34:04.133Z,4.47
2018-03-21T23:36:32.726Z,4.53
2018-03-21T23:39:01.618Z,5.28
2018-03-21T23:41:30.217Z,4.47
2018-03-21T23:43:58.896Z,3.83
2018-03-21T23:46:27.490Z,4.25
2018-03-21T23:48:56.254Z,3.90
2018-03-21T23:51:25.075Z,4.25
2018-03-21T23:53:53.824Z,5.32
2018-03-21T23:56:22.509Z,4.40
2018-03-21T23:58:51.091Z,5.22
